createdAt,value
2024-04-17T00:00:03.060Z,0.00
2024-04-17T00:01:03.097Z,0.00
2024-04-17T00:02:03.064Z,0.00
2024-04-17T00:03:03.031Z,0.00
2024-04-17T00:04:03.085Z,0.00
2024-04-17T00:05:03.035Z,0.00
2024-04-17T00:06:02.987Z,0.00
2024-04-17T00:07:02.975Z,0.00
2024-04-17T00:08:02.996Z,0.00
2024-04-17T00:09:02.956Z,0.00
2024-04-17T00:10:02.949Z,0.00
2024-04-17T00:11:03.000Z,0.00
2024-04-17T00:12:02.947Z,0.00
2024-04-17T00:13:02.920Z,0.00
2024-04-17T00:14:02.910Z,0.00
2024-04-17T00:15:02.893Z,0.00
2024-04-17T00:16:04.008Z,0.00
2024-04-17T00:17:03.008Z,0.00
2024-04-17T00:18:03.035Z,0.00
2024-04-17T00:19:02.849Z,0.00
2024-04-17T00:20:02.845Z,0.00
2024-04-17T00:21:02.827Z,0.00
2024-04-17T00:22:02.865Z,0.00
2024-04-17T00:23:02.802Z,0.00
2024-04-17T00:24:02.824Z,0.00
2024-04-17T00:25:02.799Z,0.00
2024-04-17T00:26:02.858Z,0.00
2024-04-17T00:27:02.800Z,0.00
2024-04-17T00:28:02.780Z,0.00
2024-04-17T00:29:02.826Z,0.00
2024-04-17T00:30:02.780Z,0.00
2024-04-17T00:31:02.765Z,0.00
2024-04-17T00:32:02.736Z,0.00
2024-04-17T00:33:02.754Z,0.00
2024-04-17T00:34:02.697Z,0.00
2024-04-17T00:35:02.731Z,0.00
2024-04-17T00:36:02.685Z,0.00
2024-04-17T00:37:02.671Z,0.00
2024-04-17T00:38:02.673Z,0.00
2024-04-17T00:39:02.642Z,0.00
2024-04-17T00:40:02.646Z,0.00
2024-04-17T00:41:02.690Z,0.00
2024-04-17T00:42:02.635Z,0.00
2024-04-17T00:43:02.596Z,0.00
2024-04-17T00:44:02.606Z,0.00
2024-04-17T00:45:02.875Z,0.00
2024-04-17T00:46:02.572Z,0.00
2024-04-17T00:47:02.658Z,0.00
2024-04-17T00:48:02.626Z,0.00
2024-04-17T00:49:02.533Z,0.00
2024-04-17T00:50:02.597Z,0.00
2024-04-17T00:51:02.515Z,0.00
2024-04-17T00:52:02.510Z,0.00
2024-04-17T00:53:02.491Z,0.00
2024-04-17T00:54:02.549Z,0.00
2024-04-17T00:55:02.493Z,0.00
2024-04-17T00:56:02.525Z,0.00
2024-04-17T00:57:02.459Z,0.00
2024-04-17T00:58:02.448Z,0.00
2024-04-17T00:59:02.715Z,0.00
2024-04-17T01:00:02.439Z,0.00
2024-04-17T01:01:02.424Z,0.00
2024-04-17T01:02:02.457Z,0.00
2024-04-17T01:03:02.432Z,0.00
2024-04-17T01:04:03.174Z,0.00
2024-04-17T01:05:02.397Z,0.00
2024-04-17T01:06:02.388Z,0.00
2024-04-17T01:07:02.336Z,0.00
2024-04-17T01:08:02.821Z,0.00
2024-04-17T01:09:02.355Z,0.00
2024-04-17T01:10:02.336Z,0.00
2024-04-17T01:11:02.662Z,0.00
2024-04-17T01:12:02.352Z,0.00
2024-04-17T01:13:02.289Z,0.00
2024-04-17T01:14:02.352Z,0.00
2024-04-17T01:15:02.318Z,0.00
2024-04-17T01:16:02.389Z,0.00
2024-04-17T01:17:02.322Z,0.00
2024-04-17T01:18:02.417Z,0.00
2024-04-17T01:19:02.219Z,0.00
2024-04-17T01:20:02.250Z,0.00
2024-04-17T01:21:02.236Z,0.00
2024-04-17T01:22:02.599Z,0.00
2024-04-17T01:23:02.217Z,0.00
2024-04-17T01:24:02.176Z,0.00
2024-04-17T01:25:02.161Z,0.00
2024-04-17T01:26:02.224Z,0.00
2024-04-17T01:27:02.153Z,0.00
2024-04-17T01:28:02.176Z,0.00
2024-04-17T01:29:02.153Z,0.00
2024-04-17T01:30:02.143Z,0.00
2024-04-17T01:31:02.105Z,0.00
2024-04-17T01:32:02.139Z,0.00
2024-04-17T01:33:02.125Z,0.00
2024-04-17T01:34:02.070Z,0.00
2024-04-17T01:35:02.082Z,0.00
2024-04-17T01:36:02.067Z,0.00
2024-04-17T01:37:02.048Z,0.00
2024-04-17T01:38:02.030Z,0.00
2024-04-17T01:39:02.010Z,0.00
2024-04-17T01:40:02.008Z,0.00
2024-04-17T01:41:02.031Z,0.00
2024-04-17T01:42:02.024Z,0.00
2024-04-17T01:43:01.977Z,0.00
2024-04-17T01:44:01.969Z,0.00
2024-04-17T01:45:01.959Z,0.00
2024-04-17T01:46:01.954Z,0.00
2024-04-17T01:47:01.993Z,0.00
2024-04-17T01:48:01.988Z,0.00
2024-04-17T01:49:01.907Z,0.00
2024-04-17T01:50:02.007Z,0.00
2024-04-17T01:51:01.900Z,0.00
2024-04-17T01:52:01.880Z,0.00
2024-04-17T01:53:01.904Z,0.00
2024-04-17T01:54:01.865Z,0.00
2024-04-17T01:55:01.864Z,0.00
2024-04-17T01:56:01.889Z,0.00
2024-04-17T01:57:01.837Z,0.00
2024-04-17T01:58:01.847Z,0.00
2024-04-17T01:59:01.813Z,0.00
2024-04-17T02:00:01.827Z,0.00
2024-04-17T02:01:01.804Z,0.00
2024-04-17T02:02:01.820Z,0.00
2024-04-17T02:03:01.784Z,0.00
2024-04-17T02:04:01.796Z,0.00
2024-04-17T02:05:01.787Z,0.00
2024-04-17T02:06:01.752Z,0.00
2024-04-17T02:07:01.732Z,0.00
2024-04-17T02:08:01.742Z,0.00
2024-04-17T02:09:01.714Z,0.00
2024-04-17T02:10:01.691Z,0.00
2024-04-17T02:11:01.778Z,0.00
2024-04-17T02:12:01.677Z,0.00
2024-04-17T02:13:01.674Z,0.00
2024-04-17T02:14:01.722Z,0.00
2024-04-17T02:15:01.669Z,0.00
2024-04-17T02:16:01.665Z,0.00
2024-04-17T02:17:01.688Z,0.00
2024-04-17T02:18:01.729Z,0.00
2024-04-17T02:19:01.619Z,0.00
2024-04-17T02:20:01.729Z,0.00
2024-04-17T02:21:01.575Z,0.00
2024-04-17T02:22:01.597Z,0.00
2024-04-17T02:23:01.613Z,0.00
2024-04-17T02:24:01.561Z,0.00
2024-04-17T02:25:01.531Z,0.00
2024-04-17T02:26:01.636Z,0.00
2024-04-17T02:27:01.515Z,0.00
2024-04-17T02:28:01.522Z,0.00
2024-04-17T02:29:01.486Z,0.00
2024-04-17T02:30:01.482Z,0.00
2024-04-17T02:31:01.467Z,0.00
2024-04-17T02:32:01.535Z,0.00
2024-04-17T02:33:01.531Z,0.00
2024-04-17T02:34:01.449Z,0.00
2024-04-17T02:35:01.512Z,0.00
2024-04-17T02:36:01.419Z,0.00
2024-04-17T02:37:01.419Z,0.00
2024-04-17T02:38:01.439Z,0.00
2024-04-17T02:39:01.421Z,0.00
2024-04-17T02:40:01.381Z,0.00
2024-04-17T02:41:01.404Z,0.00
2024-04-17T02:42:01.389Z,0.00
2024-04-17T02:43:01.350Z,0.00
2024-04-17T02:44:01.409Z,0.00
2024-04-17T02:45:01.339Z,0.00
2024-04-17T02:46:01.348Z,0.00
2024-04-17T02:47:01.458Z,0.00
2024-04-17T02:48:01.392Z,0.00
2024-04-17T02:49:01.280Z,0.00
2024-04-17T02:50:01.313Z,0.00
2024-04-17T02:51:01.281Z,0.00
2024-04-17T02:52:01.338Z,0.00
2024-04-17T02:53:01.283Z,0.00
2024-04-17T02:54:01.239Z,0.00
2024-04-17T02:55:01.227Z,0.00
2024-04-17T02:56:01.267Z,0.00
2024-04-17T02:57:01.203Z,0.00
2024-04-17T02:58:01.199Z,0.00
2024-04-17T02:59:01.230Z,0.00
2024-04-17T03:00:01.181Z,0.00
2024-04-17T03:01:01.172Z,0.00
2024-04-17T03:02:01.211Z,0.00
2024-04-17T03:03:01.244Z,0.00
2024-04-17T03:04:01.189Z,0.00
2024-04-17T03:05:01.245Z,0.00
2024-04-17T03:06:01.142Z,0.00
2024-04-17T03:07:01.109Z,0.00
2024-04-17T03:08:01.121Z,0.00
2024-04-17T03:09:01.077Z,0.00
2024-04-17T03:10:01.083Z,0.00
2024-04-17T03:11:01.201Z,0.00
2024-04-17T03:12:01.059Z,0.00
2024-04-17T03:13:01.030Z,0.00
2024-04-17T03:14:01.100Z,0.00
2024-04-17T03:15:01.028Z,0.00
2024-04-17T03:16:01.022Z,0.00
2024-04-17T03:17:01.251Z,0.00
2024-04-17T03:18:01.169Z,0.00
2024-04-17T03:19:01.026Z,0.00
2024-04-17T03:20:01.038Z,0.00
2024-04-17T03:21:00.963Z,0.00
2024-04-17T03:22:00.933Z,0.00
2024-04-17T03:23:00.968Z,0.00
2024-04-17T03:24:00.933Z,0.00
2024-04-17T03:25:00.920Z,0.00
2024-04-17T03:26:00.935Z,0.00
2024-04-17T03:27:00.914Z,0.00
2024-04-17T03:28:01.034Z,0.00
2024-04-17T03:29:00.942Z,0.00
2024-04-17T03:30:00.849Z,0.00
2024-04-17T03:31:01.024Z,0.00
2024-04-17T03:32:00.862Z,0.00
2024-04-17T03:33:00.902Z,0.00
2024-04-17T03:34:00.825Z,0.00
2024-04-17T03:35:00.890Z,0.00
2024-04-17T03:36:00.809Z,0.00
2024-04-17T03:37:00.788Z,0.00
2024-04-17T03:38:00.850Z,0.00
2024-04-17T03:39:00.764Z,0.00
2024-04-17T03:40:00.743Z,0.00
2024-04-17T03:41:00.835Z,0.00
2024-04-17T03:42:00.727Z,0.00
2024-04-17T03:43:00.739Z,0.00
2024-04-17T03:44:00.772Z,0.00
2024-04-17T03:45:00.738Z,0.00
2024-04-17T03:46:00.682Z,0.00
2024-04-17T03:47:00.821Z,0.00
2024-04-17T03:48:00.734Z,1.00
2024-04-17T03:49:00.632Z,1.00
2024-04-17T03:50:00.647Z,1.00
2024-04-17T03:51:00.644Z,0.00
2024-04-17T03:52:00.642Z,0.00
2024-04-17T03:53:00.651Z,2.00
2024-04-17T03:54:00.561Z,1.00
2024-04-17T03:55:00.600Z,0.00
2024-04-17T03:56:00.712Z,0.00
2024-04-17T03:57:00.551Z,3.00
2024-04-17T03:58:00.502Z,2.00
2024-04-17T03:59:00.591Z,2.00
2024-04-17T04:00:00.522Z,1.00
2024-04-17T04:01:00.523Z,2.00
2024-04-17T04:02:00.666Z,3.00
2024-04-17T04:03:00.628Z,6.00
2024-04-17T04:04:00.498Z,5.00
2024-04-17T04:05:00.533Z,9.00
2024-04-17T04:06:00.449Z,5.00
2024-04-17T04:07:00.450Z,4.00
2024-04-17T04:08:00.497Z,3.00
2024-04-17T04:09:00.405Z,2.00
2024-04-17T04:10:00.469Z,3.00
2024-04-17T04:11:00.820Z,5.00
2024-04-17T04:12:00.414Z,4.00
2024-04-17T04:13:00.376Z,4.00
2024-04-17T04:14:00.426Z,4.00
2024-04-17T04:15:00.487Z,8.00
2024-04-17T04:16:00.787Z,5.00
2024-04-17T04:17:00.393Z,7.00
2024-04-17T04:18:00.360Z,13.00
2024-04-17T04:19:00.290Z,10.00
2024-04-17T04:20:00.483Z,13.00
2024-04-17T04:21:00.326Z,15.00
2024-04-17T04:22:00.251Z,20.00
2024-04-17T04:23:00.320Z,21.00
2024-04-17T04:24:00.286Z,31.00
2024-04-17T04:25:00.783Z,35.00
2024-04-17T04:26:00.247Z,36.00
2024-04-17T04:27:00.235Z,38.00
2024-04-17T04:28:00.198Z,38.00
2024-04-17T04:29:00.254Z,41.00
2024-04-17T04:30:00.203Z,57.00
2024-04-17T04:31:00.214Z,71.00
2024-04-17T04:32:00.222Z,67.00
2024-04-17T04:33:00.324Z,70.00
2024-04-17T04:34:00.186Z,73.00
2024-04-17T04:35:00.216Z,72.00
2024-04-17T04:36:00.116Z,79.00
2024-04-17T04:37:00.114Z,83.00
2024-04-17T04:38:00.189Z,85.00
2024-04-17T04:39:00.147Z,85.00
2024-04-17T04:40:00.081Z,69.00
2024-04-17T04:41:00.273Z,76.00
2024-04-17T04:42:00.065Z,87.00
2024-04-17T04:43:00.067Z,78.00
2024-04-17T04:44:00.078Z,77.00
2024-04-17T04:45:00.042Z,98.00
2024-04-17T04:46:00.026Z,127.00
2024-04-17T04:47:00.018Z,143.00
2024-04-17T04:48:00.061Z,146.00
2024-04-17T04:48:59.978Z,134.00
2024-04-17T04:50:00.013Z,146.00
2024-04-17T04:50:59.974Z,182.00
2024-04-17T04:51:59.958Z,166.00
2024-04-17T04:52:59.978Z,140.00
2024-04-17T04:53:59.925Z,116.00
2024-04-17T04:54:59.953Z,118.00
2024-04-17T04:55:59.965Z,194.00
2024-04-17T04:56:59.920Z,295.00
2024-04-17T04:57:59.882Z,386.00
2024-04-17T04:58:59.913Z,385.00
2024-04-17T04:59:59.859Z,299.00
2024-04-17T05:00:59.866Z,303.00
2024-04-17T05:01:59.889Z,218.00
2024-04-17T05:02:59.839Z,283.00
2024-04-17T05:03:59.856Z,504.00
2024-04-17T05:04:59.894Z,580.00
2024-04-17T05:05:59.819Z,555.00
2024-04-17T05:06:59.805Z,564.00
2024-04-17T05:07:59.815Z,685.00
2024-04-17T05:08:59.771Z,757.00
2024-04-17T05:09:59.796Z,505.00
2024-04-17T05:10:59.810Z,791.00
2024-04-17T05:11:59.751Z,878.00
2024-04-17T05:12:59.738Z,853.00
2024-04-17T05:13:59.800Z,833.00
2024-04-17T05:14:59.706Z,811.00
2024-04-17T05:15:59.705Z,772.00
2024-04-17T05:16:59.740Z,875.00
2024-04-17T05:17:59.768Z,978.00
2024-04-17T05:18:59.664Z,642.00
2024-04-17T05:19:59.684Z,1261.00
2024-04-17T05:20:59.661Z,1413.00
2024-04-17T05:21:59.624Z,1298.00
2024-04-17T05:22:59.761Z,1181.00
2024-04-17T05:23:59.608Z,881.00
2024-04-17T05:24:59.616Z,769.00
2024-04-17T05:25:59.695Z,629.00
2024-04-17T05:26:59.583Z,957.00
2024-04-17T05:27:59.583Z,1093.00
2024-04-17T05:28:59.613Z,1180.00
2024-04-17T05:29:59.556Z,1090.00
2024-04-17T05:30:59.558Z,1406.00
2024-04-17T05:31:59.565Z,983.00
2024-04-17T05:32:59.552Z,962.00
2024-04-17T05:33:59.514Z,1591.00
2024-04-17T05:34:59.518Z,1929.00
2024-04-17T05:35:59.481Z,1695.00
2024-04-17T05:36:59.481Z,1634.00
2024-04-17T05:37:59.512Z,1713.00
2024-04-17T05:38:59.489Z,1995.00
2024-04-17T05:39:59.458Z,1684.00
2024-04-17T05:40:59.497Z,1544.00
2024-04-17T05:41:59.421Z,1445.00
2024-04-17T05:42:59.412Z,1742.00
2024-04-17T05:43:59.447Z,1940.00
2024-04-17T05:44:59.392Z,1801.00
2024-04-17T05:45:59.379Z,1890.00
2024-04-17T05:46:59.392Z,1845.00
2024-04-17T05:47:59.447Z,1967.00
2024-04-17T05:48:59.375Z,1473.00
2024-04-17T05:50:03.347Z,1727.00
2024-04-17T05:50:59.333Z,2371.00
2024-04-17T05:51:59.321Z,2082.00
2024-04-17T05:52:59.342Z,1930.00
2024-04-17T05:53:59.331Z,1797.00
2024-04-17T05:54:59.291Z,1970.00
2024-04-17T05:55:59.545Z,1741.00
2024-04-17T05:56:59.282Z,1745.00
2024-04-17T05:57:59.264Z,2230.00
2024-04-17T05:58:59.294Z,1629.00
2024-04-17T05:59:59.225Z,1849.00
2024-04-17T06:00:59.253Z,2833.00
2024-04-17T06:01:59.296Z,2257.00
2024-04-17T06:03:01.981Z,2330.00
2024-04-17T06:03:59.212Z,2450.00
2024-04-17T06:04:59.257Z,1898.00
2024-04-17T06:05:59.166Z,1512.00
2024-04-17T06:06:59.207Z,1182.00
2024-04-17T06:07:59.321Z,2636.00
2024-04-17T06:08:59.139Z,2395.00
2024-04-17T06:09:59.140Z,2191.00
2024-04-17T06:10:59.275Z,2793.00
2024-04-17T06:11:59.128Z,3149.00
2024-04-17T06:12:59.121Z,1925.00
2024-04-17T06:13:59.222Z,2006.00
2024-04-17T06:14:59.081Z,3086.00
2024-04-17T06:15:59.066Z,3362.00
2024-04-17T06:16:59.164Z,2782.00
2024-04-17T06:17:59.092Z,2799.00
2024-04-17T06:18:59.104Z,2199.00
2024-04-17T06:19:59.052Z,3275.00
2024-04-17T06:20:59.011Z,2318.00
2024-04-17T06:21:59.014Z,2314.00
2024-04-17T06:22:59.046Z,3595.00
2024-04-17T06:23:58.983Z,3093.00
2024-04-17T06:24:58.974Z,4829.00
2024-04-17T06:25:59.037Z,4052.00
2024-04-17T06:26:59.110Z,3541.00
2024-04-17T06:27:58.935Z,3621.00
2024-04-17T06:28:59.003Z,3263.00
2024-04-17T06:29:58.920Z,4148.00
2024-04-17T06:30:58.954Z,2895.00
2024-04-17T06:31:58.950Z,1842.00
2024-04-17T06:32:59.025Z,4020.00
2024-04-17T06:33:58.874Z,3808.00
2024-04-17T06:34:58.981Z,3895.00
2024-04-17T06:35:58.877Z,1987.00
2024-04-17T06:36:58.851Z,2609.00
2024-04-17T06:37:58.967Z,4477.00
2024-04-17T06:38:58.838Z,1378.00
2024-04-17T06:39:58.822Z,3428.00
2024-04-17T06:40:58.911Z,1780.00
2024-04-17T06:42:02.756Z,8051.00
2024-04-17T06:42:58.795Z,3199.00
2024-04-17T06:43:58.786Z,2279.00
2024-04-17T06:44:58.779Z,10256.00
2024-04-17T06:45:58.750Z,3445.00
2024-04-17T06:46:58.868Z,3754.00
2024-04-17T06:47:58.795Z,3040.00
2024-04-17T06:48:58.758Z,3916.00
2024-04-17T06:49:58.787Z,2435.00
2024-04-17T06:50:58.709Z,1975.00
2024-04-17T06:51:58.685Z,1891.00
2024-04-17T06:52:58.743Z,1808.00
2024-04-17T06:53:58.685Z,1629.00
2024-04-17T06:54:58.657Z,1938.00
2024-04-17T06:55:58.772Z,2764.00
2024-04-17T06:56:58.642Z,2037.00
2024-04-17T06:57:58.624Z,2250.00
2024-04-17T06:58:58.676Z,2728.00
2024-04-17T06:59:58.606Z,2821.00
2024-04-17T07:00:58.675Z,2927.00
2024-04-17T07:01:58.687Z,2733.00
2024-04-17T07:03:04.381Z,2816.00
2024-04-17T07:03:58.697Z,3064.00
2024-04-17T07:04:58.652Z,2217.00
2024-04-17T07:05:58.543Z,1537.00
2024-04-17T07:06:58.543Z,1244.00
2024-04-17T07:07:58.614Z,1135.00
2024-04-17T07:08:58.519Z,1691.00
2024-04-17T07:09:58.504Z,1921.00
2024-04-17T07:10:58.569Z,4203.00
2024-04-17T07:11:58.535Z,3357.00
2024-04-17T07:12:58.497Z,2022.00
2024-04-17T07:13:58.510Z,1683.00
2024-04-17T07:14:58.458Z,1384.00
2024-04-17T07:15:58.437Z,981.00
2024-04-17T07:16:58.536Z,660.00
2024-04-17T07:17:58.459Z,2699.00
2024-04-17T07:18:58.476Z,1485.00
2024-04-17T07:19:58.426Z,1655.00
2024-04-17T07:20:58.394Z,1756.00
2024-04-17T07:21:58.409Z,1164.00
2024-04-17T07:22:58.388Z,771.00
2024-04-17T07:23:58.370Z,999.00
2024-04-17T07:24:58.339Z,1340.00
2024-04-17T07:25:58.418Z,1428.00
2024-04-17T07:26:58.344Z,6592.00
2024-04-17T07:27:58.322Z,4684.00
2024-04-17T07:28:58.323Z,3972.00
2024-04-17T07:29:58.299Z,4700.00
2024-04-17T07:30:58.294Z,2897.00
2024-04-17T07:31:58.384Z,2389.00
2024-04-17T07:32:58.366Z,1858.00
2024-04-17T07:33:58.252Z,5023.00
2024-04-17T07:34:59.736Z,5219.00
2024-04-17T07:35:58.262Z,3991.00
2024-04-17T07:36:58.219Z,3960.00
2024-04-17T07:37:58.290Z,3423.00
2024-04-17T07:38:58.205Z,4002.00
2024-04-17T07:39:58.213Z,3810.00
2024-04-17T07:40:58.237Z,2651.00
2024-04-17T07:41:58.177Z,5652.00
2024-04-17T07:42:58.166Z,3369.00
2024-04-17T07:43:58.238Z,2202.00
2024-04-17T07:44:58.173Z,11883.00
2024-04-17T07:45:58.223Z,4695.00
2024-04-17T07:46:58.161Z,2346.00
2024-04-17T07:47:58.225Z,2261.00
2024-04-17T07:48:58.099Z,3840.00
2024-04-17T07:49:58.166Z,4827.00
2024-04-17T07:50:58.076Z,4995.00
2024-04-17T07:51:58.080Z,5513.00
2024-04-17T07:52:58.195Z,5616.00
2024-04-17T07:53:58.071Z,3908.00
2024-04-17T07:54:58.044Z,3611.00
2024-04-17T07:55:58.095Z,3542.00
2024-04-17T07:56:58.015Z,3900.00
2024-04-17T07:57:58.023Z,3294.00
2024-04-17T07:58:58.104Z,3579.00
2024-04-17T07:59:57.987Z,4427.00
2024-04-17T08:00:58.020Z,4882.00
2024-04-17T08:01:58.026Z,3759.00
2024-04-17T08:02:57.994Z,3260.00
2024-04-17T08:03:57.986Z,4706.00
2024-04-17T08:04:58.008Z,4575.00
2024-04-17T08:05:57.938Z,3542.00
2024-04-17T08:06:57.912Z,4105.00
2024-04-17T08:07:58.703Z,4514.00
2024-04-17T08:08:57.907Z,4950.00
2024-04-17T08:09:57.908Z,5864.00
2024-04-17T08:10:57.906Z,5903.00
2024-04-17T08:11:57.900Z,4802.00
2024-04-17T08:12:57.863Z,4332.00
2024-04-17T08:13:57.890Z,3354.00
2024-04-17T08:14:57.843Z,4510.00
2024-04-17T08:15:57.815Z,4730.00
2024-04-17T08:16:57.869Z,3104.00
2024-04-17T08:17:58.013Z,5834.00
2024-04-17T08:18:57.782Z,5064.00
2024-04-17T08:19:57.872Z,4943.00
2024-04-17T08:20:57.937Z,5305.00
2024-04-17T08:21:57.779Z,2531.00
2024-04-17T08:22:57.903Z,8853.00
2024-04-17T08:23:57.807Z,4894.00
2024-04-17T08:24:57.719Z,5419.00
2024-04-17T08:25:57.760Z,4467.00
2024-04-17T08:26:57.714Z,4166.00
2024-04-17T08:27:57.696Z,4167.00
2024-04-17T08:28:57.745Z,4019.00
2024-04-17T08:29:57.671Z,3187.00
2024-04-17T08:30:57.651Z,3247.00
2024-04-17T08:31:57.680Z,3236.00
2024-04-17T08:32:57.917Z,2890.00
2024-04-17T08:33:57.738Z,3132.00
2024-04-17T08:34:57.649Z,1615.00
2024-04-17T08:35:57.626Z,1601.00
2024-04-17T08:36:57.602Z,2816.00
2024-04-17T08:37:57.700Z,6442.00
2024-04-17T08:38:57.638Z,2886.00
2024-04-17T08:39:57.577Z,1627.00
2024-04-17T08:40:57.710Z,2352.00
2024-04-17T08:41:57.550Z,2731.00
2024-04-17T08:42:57.528Z,3319.00
2024-04-17T08:43:57.553Z,4481.00
2024-04-17T08:44:57.517Z,9829.00
2024-04-17T08:45:57.681Z,4902.00
2024-04-17T08:46:57.522Z,3434.00
2024-04-17T08:47:57.547Z,1856.00
2024-04-17T08:48:57.462Z,6608.00
2024-04-17T08:49:57.531Z,2529.00
2024-04-17T08:50:57.481Z,4012.00
2024-04-17T08:51:57.437Z,3407.00
2024-04-17T08:52:57.544Z,2853.00
2024-04-17T08:53:57.414Z,3094.00
2024-04-17T08:54:57.418Z,3280.00
2024-04-17T08:55:57.499Z,2836.00
2024-04-17T08:56:57.371Z,2826.00
2024-04-17T08:57:57.372Z,2740.00
2024-04-17T08:58:57.358Z,2582.00
2024-04-17T08:59:57.362Z,2462.00
2024-04-17T09:00:57.397Z,2462.00
2024-04-17T09:01:57.360Z,2462.00
2024-04-17T09:02:57.326Z,2479.00
2024-04-17T09:03:57.384Z,2473.00
2024-04-17T09:04:57.368Z,2472.00
2024-04-17T09:05:58.170Z,2462.00
2024-04-17T09:06:57.277Z,2472.00
2024-04-17T09:07:57.299Z,2474.00
2024-04-17T09:08:57.264Z,2488.00
2024-04-17T09:09:57.277Z,2521.00
2024-04-17T09:10:57.522Z,2549.00
2024-04-17T09:11:58.267Z,2561.00
2024-04-17T09:12:57.208Z,2535.00
2024-04-17T09:13:57.347Z,2501.00
2024-04-17T09:14:57.466Z,8036.00
2024-04-17T09:15:57.183Z,1566.00
2024-04-17T09:16:57.255Z,3464.00
2024-04-17T09:17:57.209Z,1953.00
2024-04-17T09:18:57.152Z,7774.00
2024-04-17T09:19:57.408Z,3256.00
2024-04-17T09:20:57.137Z,2739.00
2024-04-17T09:21:57.131Z,2862.00
2024-04-17T09:22:57.198Z,2029.00
2024-04-17T09:23:57.124Z,1862.00
2024-04-17T09:24:57.083Z,2881.00
2024-04-17T09:25:57.155Z,3148.00
2024-04-17T09:26:57.072Z,2780.00
2024-04-17T09:27:57.076Z,2648.00
2024-04-17T09:28:57.235Z,2389.00
2024-04-17T09:29:57.050Z,2624.00
2024-04-17T09:30:57.028Z,2998.00
2024-04-17T09:31:57.075Z,2855.00
2024-04-17T09:32:57.338Z,3008.00
2024-04-17T09:33:56.997Z,3085.00
2024-04-17T09:34:57.080Z,2796.00
2024-04-17T09:35:56.978Z,3079.00
2024-04-17T09:36:56.972Z,2905.00
2024-04-17T09:37:57.033Z,2842.00
2024-04-17T09:38:56.942Z,2984.00
2024-04-17T09:39:56.935Z,3252.00
2024-04-17T09:40:56.938Z,3312.00
2024-04-17T09:41:56.926Z,2311.00
2024-04-17T09:42:57.189Z,2584.00
2024-04-17T09:43:56.973Z,2608.00
2024-04-17T09:44:56.877Z,2826.00
2024-04-17T09:45:56.901Z,2952.00
2024-04-17T09:46:59.299Z,3276.00
2024-04-17T09:47:56.889Z,2878.00
2024-04-17T09:48:56.839Z,2980.00
2024-04-17T09:49:56.891Z,3106.00
2024-04-17T09:50:57.214Z,3184.00
2024-04-17T09:51:57.431Z,2932.00
2024-04-17T09:52:56.863Z,2456.00
2024-04-17T09:53:56.805Z,2730.00
2024-04-17T09:54:56.787Z,2639.00
2024-04-17T09:55:57.023Z,2895.00
2024-04-17T09:56:56.801Z,2475.00
2024-04-17T09:57:57.022Z,2384.00
2024-04-17T09:59:04.089Z,2376.00
2024-04-17T09:59:56.727Z,2781.00
2024-04-17T10:00:56.775Z,3165.00
2024-04-17T10:01:56.759Z,2616.00
2024-04-17T10:02:56.750Z,2198.00
2024-04-17T10:03:56.702Z,2599.00
2024-04-17T10:04:56.720Z,2201.00
2024-04-17T10:05:56.689Z,2130.00
2024-04-17T10:06:56.644Z,2379.00
2024-04-17T10:07:56.703Z,2654.00
2024-04-17T10:08:56.634Z,2346.00
2024-04-17T10:09:56.660Z,2342.00
2024-04-17T10:10:56.768Z,2337.00
2024-04-17T10:11:56.640Z,2288.00
2024-04-17T10:12:56.589Z,2276.00
2024-04-17T10:13:56.645Z,2173.00
2024-04-17T10:14:56.584Z,2177.00
2024-04-17T10:15:56.564Z,2175.00
2024-04-17T10:16:56.597Z,2203.00
2024-04-17T10:17:56.660Z,2343.00
2024-04-17T10:18:56.587Z,2060.00
2024-04-17T10:19:56.565Z,3361.00
2024-04-17T10:20:56.504Z,2019.00
2024-04-17T10:21:56.510Z,2300.00
2024-04-17T10:22:56.501Z,2260.00
2024-04-17T10:23:56.493Z,2231.00
2024-04-17T10:24:56.456Z,2269.00
2024-04-17T10:25:56.490Z,2227.00
2024-04-17T10:26:56.440Z,2199.00
2024-04-17T10:27:56.432Z,2240.00
2024-04-17T10:28:56.492Z,2278.00
2024-04-17T10:29:56.419Z,2300.00
2024-04-17T10:30:56.396Z,2291.00
2024-04-17T10:31:56.406Z,2258.00
2024-04-17T10:32:56.466Z,2235.00
2024-04-17T10:33:56.392Z,2260.00
2024-04-17T10:34:56.395Z,2264.00
2024-04-17T10:35:56.361Z,2277.00
2024-04-17T10:36:56.366Z,2267.00
2024-04-17T10:37:57.449Z,2277.00
2024-04-17T10:38:56.380Z,2269.00
2024-04-17T10:39:56.311Z,2227.00
2024-04-17T10:40:56.398Z,2187.00
2024-04-17T10:41:56.306Z,2118.00
2024-04-17T10:42:56.297Z,2138.00
2024-04-17T10:43:56.317Z,2203.00
2024-04-17T10:44:56.273Z,2204.00
2024-04-17T10:45:56.264Z,2188.00
2024-04-17T10:46:56.342Z,2193.00
2024-04-17T10:47:56.341Z,2235.00
2024-04-17T10:48:56.282Z,2275.00
2024-04-17T10:49:56.298Z,2322.00
2024-04-17T10:50:56.232Z,2349.00
2024-04-17T10:51:56.212Z,2370.00
2024-04-17T10:52:56.214Z,2362.00
2024-04-17T10:53:56.186Z,2348.00
2024-04-17T10:54:56.171Z,2346.00
2024-04-17T10:55:56.194Z,2344.00
2024-04-17T10:56:56.168Z,2353.00
2024-04-17T10:57:56.146Z,2424.00
2024-04-17T10:58:56.149Z,2476.00
2024-04-17T10:59:56.132Z,2471.00
2024-04-17T11:00:56.151Z,2448.00
2024-04-17T11:01:56.259Z,2467.00
2024-04-17T11:02:56.128Z,2506.00
2024-04-17T11:03:56.161Z,2548.00
2024-04-17T11:04:56.087Z,2558.00
2024-04-17T11:05:56.103Z,2529.00
2024-04-17T11:06:56.077Z,2508.00
2024-04-17T11:07:56.101Z,2526.00
2024-04-17T11:09:01.038Z,7781.00
2024-04-17T11:09:56.039Z,1725.00
2024-04-17T11:10:56.078Z,7488.00
2024-04-17T11:11:56.086Z,2250.00
2024-04-17T11:12:56.024Z,2416.00
2024-04-17T11:13:56.125Z,2291.00
2024-04-17T11:14:56.004Z,1924.00
2024-04-17T11:15:56.024Z,1698.00
2024-04-17T11:16:56.052Z,1442.00
2024-04-17T11:17:56.150Z,1202.00
2024-04-17T11:18:55.954Z,1815.00
2024-04-17T11:19:56.015Z,1558.00
2024-04-17T11:20:56.021Z,1810.00
2024-04-17T11:21:55.929Z,8033.00
2024-04-17T11:22:55.982Z,2332.00
2024-04-17T11:23:55.940Z,2323.00
2024-04-17T11:24:55.917Z,2650.00
2024-04-17T11:25:55.928Z,2621.00
2024-04-17T11:26:55.875Z,2537.00
2024-04-17T11:27:55.880Z,2457.00
2024-04-17T11:28:55.966Z,1634.00
2024-04-17T11:29:55.879Z,5222.00
2024-04-17T11:30:55.857Z,1854.00
2024-04-17T11:31:55.889Z,2258.00
2024-04-17T11:32:55.907Z,2211.00
2024-04-17T11:33:55.833Z,2313.00
2024-04-17T11:34:55.856Z,2314.00
2024-04-17T11:35:55.818Z,2335.00
2024-04-17T11:36:55.784Z,2325.00
2024-04-17T11:37:55.820Z,2290.00
2024-04-17T11:38:55.877Z,2263.00
2024-04-17T11:39:55.751Z,2305.00
2024-04-17T11:40:55.761Z,2298.00
2024-04-17T11:41:55.738Z,2269.00
2024-04-17T11:42:55.744Z,2286.00
2024-04-17T11:43:55.769Z,2288.00
2024-04-17T11:44:57.375Z,2269.00
2024-04-17T11:45:56.688Z,2242.00
2024-04-17T11:46:55.726Z,2228.00
2024-04-17T11:47:55.813Z,2315.00
2024-04-17T11:48:55.701Z,2388.00
2024-04-17T11:49:55.745Z,2439.00
2024-04-17T11:50:55.655Z,2485.00
2024-04-17T11:51:55.658Z,2546.00
2024-04-17T11:52:55.786Z,2601.00
2024-04-17T11:53:55.624Z,2605.00
2024-04-17T11:54:55.622Z,2609.00
2024-04-17T11:55:55.626Z,2600.00
2024-04-17T11:56:55.614Z,2623.00
2024-04-17T11:57:55.634Z,2669.00
2024-04-17T11:58:55.630Z,2754.00
2024-04-17T11:59:55.573Z,2879.00
2024-04-17T12:00:55.637Z,2953.00
2024-04-17T12:01:55.606Z,2962.00
2024-04-17T12:02:55.585Z,2976.00
2024-04-17T12:03:55.598Z,8109.00
2024-04-17T12:04:55.666Z,1953.00
2024-04-17T12:05:55.525Z,2400.00
2024-04-17T12:06:55.513Z,2503.00
2024-04-17T12:07:55.539Z,2623.00
2024-04-17T12:08:55.484Z,2622.00
2024-04-17T12:09:55.471Z,2560.00
2024-04-17T12:10:55.512Z,2523.00
2024-04-17T12:11:55.556Z,6807.00
2024-04-17T12:12:55.457Z,1821.00
2024-04-17T12:13:55.485Z,1338.00
2024-04-17T12:14:55.432Z,1424.00
2024-04-17T12:15:55.444Z,1349.00
2024-04-17T12:16:55.430Z,1642.00
2024-04-17T12:17:55.426Z,5507.00
2024-04-17T12:18:55.418Z,1261.00
2024-04-17T12:19:55.441Z,1689.00
2024-04-17T12:20:55.396Z,2995.00
2024-04-17T12:21:55.355Z,3287.00
2024-04-17T12:22:55.401Z,1439.00
2024-04-17T12:23:55.332Z,1584.00
2024-04-17T12:24:55.331Z,2237.00
2024-04-17T12:25:55.379Z,1575.00
2024-04-17T12:26:55.324Z,4862.00
2024-04-17T12:27:55.302Z,1804.00
2024-04-17T12:28:55.340Z,1635.00
2024-04-17T12:29:55.298Z,1775.00
2024-04-17T12:30:55.290Z,1824.00
2024-04-17T12:31:55.318Z,1814.00